sensor_id;sensor_type;location;lat;lon;timestamp;temperature;humidity
48454;DHT22;34261;55.678;12.464;2024-03-06T00:01:07;4.50;99.90
48454;DHT22;34261;55.678;12.464;2024-03-06T00:03:33;4.50;99.90
48454;DHT22;34261;55.678;12.464;2024-03-06T00:05:59;4.50;99.90
48454;DHT22;34261;55.678;12.464;2024-03-06T00:08:27;4.60;99.90
48454;DHT22;34261;55.678;12.464;2024-03-06T00:10:53;4.60;99.90
48454;DHT22;34261;55.678;12.464;2024-03-06T00:13:19;4.60;99.90
48454;DHT22;34261;55.678;12.464;2024-03-06T00:15:47;4.60;99.90
48454;DHT22;34261;55.678;12.464;2024-03-06T00:18:14;4.60;99.90
48454;DHT22;34261;55.678;12.464;2024-03-06T00:20:40;4.60;99.90
48454;DHT22;34261;55.678;12.464;2024-03-06T00:23:07;4.60;99.90
48454;DHT22;34261;55.678;12.464;2024-03-06T00:25:33;4.50;99.90
48454;DHT22;34261;55.678;12.464;2024-03-06T00:28:01;4.60;99.90
48454;DHT22;34261;55.678;12.464;2024-03-06T00:30:26;4.60;99.90
48454;DHT22;34261;55.678;12.464;2024-03-06T00:32:52;4.60;99.90
48454;DHT22;34261;55.678;12.464;2024-03-06T00:35:18;4.60;99.90
48454;DHT22;34261;55.678;12.464;2024-03-06T00:37:45;4.60;99.90
48454;DHT22;34261;55.678;12.464;2024-03-06T00:40:12;4.70;99.90
48454;DHT22;34261;55.678;12.464;2024-03-06T00:42:39;4.70;99.90
48454;DHT22;34261;55.678;12.464;2024-03-06T00:45:07;4.70;99.90
48454;DHT22;34261;55.678;12.464;2024-03-06T00:47:32;4.70;99.90
48454;DHT22;34261;55.678;12.464;2024-03-06T00:50:00;4.70;99.90
48454;DHT22;34261;55.678;12.464;2024-03-06T00:52:25;4.60;99.90
48454;DHT22;34261;55.678;12.464;2024-03-06T00:54:51;4.70;99.90
48454;DHT22;34261;55.678;12.464;2024-03-06T00:57:17;4.70;99.90
48454;DHT22;34261;55.678;12.464;2024-03-06T00:59:43;4.80;99.90
48454;DHT22;34261;55.678;12.464;2024-03-06T01:02:10;4.80;99.90
48454;DHT22;34261;55.678;12.464;2024-03-06T01:04:36;4.70;99.90
48454;DHT22;34261;55.678;12.464;2024-03-06T01:07:01;4.70;99.90
48454;DHT22;34261;55.678;12.464;2024-03-06T01:09:27;4.70;99.90
48454;DHT22;34261;55.678;12.464;2024-03-06T01:11:56;4.70;99.90
48454;DHT22;34261;55.678;12.464;2024-03-06T01:14:22;4.80;99.90
48454;DHT22;34261;55.678;12.464;2024-03-06T01:16:47;4.80;99.90
48454;DHT22;34261;55.678;12.464;2024-03-06T01:19:13;4.80;99.90
48454;DHT22;34261;55.678;12.464;2024-03-06T01:21:40;4.80;99.90
48454;DHT22;34261;55.678;12.464;2024-03-06T01:24:06;4.80;99.90
48454;DHT22;34261;55.678;12.464;2024-03-06T01:26:32;4.80;99.90
48454;DHT22;34261;55.678;12.464;2024-03-06T01:28:58;4.80;99.90
48454;DHT22;34261;55.678;12.464;2024-03-06T01:31:25;4.80;99.90
48454;DHT22;34261;55.678;12.464;2024-03-06T01:33:50;4.90;99.90
48454;DHT22;34261;55.678;12.464;2024-03-06T01:36:17;4.90;99.90
48454;DHT22;34261;55.678;12.464;2024-03-06T01:38:43;4.90;99.90
48454;DHT22;34261;55.678;12.464;2024-03-06T01:41:11;4.90;99.90
48454;DHT22;34261;55.678;12.464;2024-03-06T01:43:38;4.90;99.90
48454;DHT22;34261;55.678;12.464;2024-03-06T01:46:04;4.90;99.90
48454;DHT22;34261;55.678;12.464;2024-03-06T01:48:31;4.90;99.90
48454;DHT22;34261;55.678;12.464;2024-03-06T01:50:59;4.90;99.90
48454;DHT22;34261;55.678;12.464;2024-03-06T01:53:29;4.90;99.90
48454;DHT22;34261;55.678;12.464;2024-03-06T01:55:57;4.90;99.90
48454;DHT22;34261;55.678;12.464;2024-03-06T01:58:23;5.00;99.90
48454;DHT22;34261;55.678;12.464;2024-03-06T02:00:50;4.90;99.90
48454;DHT22;34261;55.678;12.464;2024-03-06T02:03:18;4.90;99.90
48454;DHT22;34261;55.678;12.464;2024-03-06T02:05:45;5.00;99.90
48454;DHT22;34261;55.678;12.464;2024-03-06T02:08:10;5.00;99.90
48454;DHT22;34261;55.678;12.464;2024-03-06T02:10:36;5.00;99.90
48454;DHT22;34261;55.678;12.464;2024-03-06T02:13:02;5.00;99.90
48454;DHT22;34261;55.678;12.464;2024-03-06T02:15:28;5.00;99.90
48454;DHT22;34261;55.678;12.464;2024-03-06T02:17:54;5.00;99.90
48454;DHT22;34261;55.678;12.464;2024-03-06T02:20:25;5.10;99.90
48454;DHT22;34261;55.678;12.464;2024-03-06T02:22:51;5.00;99.90
48454;DHT22;34261;55.678;12.464;2024-03-06T02:25:17;5.00;99.90
48454;DHT22;34261;55.678;12.464;2024-03-06T02:27:44;5.00;99.90
48454;DHT22;34261;55.678;12.464;2024-03-06T02:30:12;5.10;99.90
48454;DHT22;34261;55.678;12.464;2024-03-06T02:32:37;5.00;99.90
48454;DHT22;34261;55.678;12.464;2024-03-06T02:35:04;5.00;99.90
48454;DHT22;34261;55.678;12.464;2024-03-06T02:37:34;5.00;99.90
48454;DHT22;34261;55.678;12.464;2024-03-06T02:40:00;5.00;99.90
48454;DHT22;34261;55.678;12.464;2024-03-06T02:42:29;5.00;99.90
48454;DHT22;34261;55.678;12.464;2024-03-06T02:44:56;5.00;99.90
48454;DHT22;34261;55.678;12.464;2024-03-06T02:50:26;5.00;99.90
48454;DHT22;34261;55.678;12.464;2024-03-06T02:53:17;5.00;99.90
48454;DHT22;34261;55.678;12.464;2024-03-06T02:56:20;5.10;99.90
48454;DHT22;34261;55.678;12.464;2024-03-06T02:59:27;5.20;99.90
48454;DHT22;34261;55.678;12.464;2024-03-06T03:02:49;5.10;99.90
48454;DHT22;34261;55.678;12.464;2024-03-06T03:05:42;5.20;99.90
48454;DHT22;34261;55.678;12.464;2024-03-06T03:08:13;5.10;99.90
48454;DHT22;34261;55.678;12.464;2024-03-06T03:13:19;5.10;99.90
48454;DHT22;34261;55.678;12.464;2024-03-06T03:15:47;5.10;99.90
48454;DHT22;34261;55.678;12.464;2024-03-06T03:18:13;5.10;99.90
48454;DHT22;34261;55.678;12.464;2024-03-06T03:20:39;5.10;99.90
48454;DHT22;34261;55.678;12.464;2024-03-06T03:23:05;5.20;99.90
48454;DHT22;34261;55.678;12.464;2024-03-06T03:25:31;5.10;99.90
48454;DHT22;34261;55.678;12.464;2024-03-06T03:27:59;5.20;99.90
48454;DHT22;34261;55.678;12.464;2024-03-06T03:30:25;5.20;99.90
48454;DHT22;34261;55.678;12.464;2024-03-06T03:32:50;5.30;99.90
48454;DHT22;34261;55.678;12.464;2024-03-06T03:35:18;5.20;99.90
48454;DHT22;34261;55.678;12.464;2024-03-06T03:37:46;5.20;99.90
48454;DHT22;34261;55.678;12.464;2024-03-06T03:40:12;5.30;99.90
48454;DHT22;34261;55.678;12.464;2024-03-06T03:42:38;5.30;99.90
48454;DHT22;34261;55.678;12.464;2024-03-06T03:45:04;5.30;99.90
48454;DHT22;34261;55.678;12.464;2024-03-06T03:47:32;5.30;99.90
48454;DHT22;34261;55.678;12.464;2024-03-06T03:49:59;5.40;99.90
48454;DHT22;34261;55.678;12.464;2024-03-06T03:52:24;5.40;99.90
48454;DHT22;34261;55.678;12.464;2024-03-06T03:54:50;5.40;99.90
48454;DHT22;34261;55.678;12.464;2024-03-06T03:57:16;5.40;99.90
48454;DHT22;34261;55.678;12.464;2024-03-06T04:00:14;5.40;99.90
48454;DHT22;34261;55.678;12.464;2024-03-06T04:02:42;5.30;99.90
48454;DHT22;34261;55.678;12.464;2024-03-06T04:05:09;5.20;99.90
48454;DHT22;34261;55.678;12.464;2024-03-06T04:07:36;5.20;99.90
48454;DHT22;34261;55.678;12.464;2024-03-06T04:10:03;5.30;99.90
48454;DHT22;34261;55.678;12.464;2024-03-06T04:12:29;5.20;99.90
48454;DHT22;34261;55.678;12.464;2024-03-06T04:14:54;5.30;99.90
48454;DHT22;34261;55.678;12.464;2024-03-06T04:17:20;5.30;99.90
48454;DHT22;34261;55.678;12.464;2024-03-06T04:19:46;5.30;99.90
48454;DHT22;34261;55.678;12.464;2024-03-06T04:22:14;5.30;99.90
48454;DHT22;34261;55.678;12.464;2024-03-06T04:24:44;5.30;99.90
48454;DHT22;34261;55.678;12.464;2024-03-06T04:27:10;5.20;99.90
48454;DHT22;34261;55.678;12.464;2024-03-06T04:29:36;5.30;99.90
48454;DHT22;34261;55.678;12.464;2024-03-06T04:32:02;5.30;99.90
48454;DHT22;34261;55.678;12.464;2024-03-06T04:34:28;5.30;99.90
48454;DHT22;34261;55.678;12.464;2024-03-06T04:36:53;5.30;99.90
48454;DHT22;34261;55.678;12.464;2024-03-06T04:39:19;5.30;99.90
48454;DHT22;34261;55.678;12.464;2024-03-06T04:41:45;5.40;99.90
48454;DHT22;34261;55.678;12.464;2024-03-06T04:44:11;5.30;99.90
48454;DHT22;34261;55.678;12.464;2024-03-06T04:46:36;5.30;99.90
48454;DHT22;34261;55.678;12.464;2024-03-06T04:49:02;5.30;99.90
48454;DHT22;34261;55.678;12.464;2024-03-06T04:51:28;5.30;99.90
48454;DHT22;34261;55.678;12.464;2024-03-06T04:53:54;5.30;99.90
48454;DHT22;34261;55.678;12.464;2024-03-06T04:56:20;5.40;99.90
48454;DHT22;34261;55.678;12.464;2024-03-06T04:58:47;5.40;99.90
48454;DHT22;34261;55.678;12.464;2024-03-06T05:01:14;5.30;99.90
48454;DHT22;34261;55.678;12.464;2024-03-06T05:03:40;5.40;99.90
48454;DHT22;34261;55.678;12.464;2024-03-06T05:06:07;5.40;99.90
48454;DHT22;34261;55.678;12.464;2024-03-06T05:08:33;5.50;99.90
48454;DHT22;34261;55.678;12.464;2024-03-06T05:11:02;5.40;99.90
48454;DHT22;34261;55.678;12.464;2024-03-06T05:13:29;5.40;99.90
48454;DHT22;34261;55.678;12.464;2024-03-06T05:15:55;5.40;99.90
48454;DHT22;34261;55.678;12.464;2024-03-06T05:18:20;5.40;99.90
48454;DHT22;34261;55.678;12.464;2024-03-06T05:20:46;5.40;99.90
48454;DHT22;34261;55.678;12.464;2024-03-06T05:23:12;5.50;99.90
48454;DHT22;34261;55.678;12.464;2024-03-06T05:25:39;5.40;99.90
48454;DHT22;34261;55.678;12.464;2024-03-06T05:28:06;5.40;99.90
48454;DHT22;34261;55.678;12.464;2024-03-06T05:30:33;5.40;99.90
48454;DHT22;34261;55.678;12.464;2024-03-06T05:32:58;5.40;99.90
48454;DHT22;34261;55.678;12.464;2024-03-06T05:35:24;5.40;99.90
48454;DHT22;34261;55.678;12.464;2024-03-06T05:37:50;5.40;99.90
48454;DHT22;34261;55.678;12.464;2024-03-06T05:40:16;5.40;99.90
48454;DHT22;34261;55.678;12.464;2024-03-06T05:42:41;5.40;99.90
48454;DHT22;34261;55.678;12.464;2024-03-06T05:45:08;5.50;99.90
48454;DHT22;34261;55.678;12.464;2024-03-06T05:47:37;5.50;99.90
48454;DHT22;34261;55.678;12.464;2024-03-06T05:50:04;5.50;99.90
48454;DHT22;34261;55.678;12.464;2024-03-06T05:52:31;5.50;99.90
48454;DHT22;34261;55.678;12.464;2024-03-06T05:54:57;5.50;99.90
48454;DHT22;34261;55.678;12.464;2024-03-06T05:57:22;5.50;99.90
48454;DHT22;34261;55.678;12.464;2024-03-06T05:59:50;5.50;99.90
48454;DHT22;34261;55.678;12.464;2024-03-06T06:02:15;5.50;99.90
48454;DHT22;34261;55.678;12.464;2024-03-06T06:04:48;5.50;99.90
48454;DHT22;34261;55.678;12.464;2024-03-06T06:07:14;5.50;99.90
48454;DHT22;34261;55.678;12.464;2024-03-06T06:09:41;5.50;99.90
48454;DHT22;34261;55.678;12.464;2024-03-06T06:12:08;5.50;99.90
48454;DHT22;34261;55.678;12.464;2024-03-06T06:14:34;5.60;99.90
48454;DHT22;34261;55.678;12.464;2024-03-06T06:17:01;5.60;99.90
48454;DHT22;34261;55.678;12.464;2024-03-06T06:19:30;5.60;99.90
48454;DHT22;34261;55.678;12.464;2024-03-06T06:21:56;5.60;99.90
48454;DHT22;34261;55.678;12.464;2024-03-06T06:24:22;5.60;99.90
48454;DHT22;34261;55.678;12.464;2024-03-06T06:26:47;5.60;99.90
48454;DHT22;34261;55.678;12.464;2024-03-06T06:29:13;5.60;99.90
48454;DHT22;34261;55.678;12.464;2024-03-06T06:31:38;5.70;99.90
48454;DHT22;34261;55.678;12.464;2024-03-06T06:34:04;5.70;99.90
48454;DHT22;34261;55.678;12.464;2024-03-06T06:36:31;5.80;99.90
48454;DHT22;34261;55.678;12.464;2024-03-06T06:38:57;5.70;99.90
48454;DHT22;34261;55.678;12.464;2024-03-06T06:41:23;5.70;99.90
48454;DHT22;34261;55.678;12.464;2024-03-06T06:43:50;5.80;99.90
48454;DHT22;34261;55.678;12.464;2024-03-06T06:46:17;5.80;99.90
48454;DHT22;34261;55.678;12.464;2024-03-06T06:48:43;5.80;99.90
48454;DHT22;34261;55.678;12.464;2024-03-06T06:51:09;5.70;99.90
48454;DHT22;34261;55.678;12.464;2024-03-06T06:53:35;5.80;99.90
48454;DHT22;34261;55.678;12.464;2024-03-06T06:56:00;5.80;99.90
48454;DHT22;34261;55.678;12.464;2024-03-06T06:58:26;5.80;99.90
48454;DHT22;34261;55.678;12.464;2024-03-06T07:00:53;5.80;99.90
48454;DHT22;34261;55.678;12.464;2024-03-06T07:03:19;5.80;99.90
48454;DHT22;34261;55.678;12.464;2024-03-06T07:05:44;5.80;99.90
48454;DHT22;34261;55.678;12.464;2024-03-06T07:08:10;5.90;99.90
48454;DHT22;34261;55.678;12.464;2024-03-06T07:10:36;5.80;99.90
48454;DHT22;34261;55.678;12.464;2024-03-06T07:13:02;5.80;99.90
48454;DHT22;34261;55.678;12.464;2024-03-06T07:15:31;5.80;99.90
48454;DHT22;34261;55.678;12.464;2024-03-06T07:17:58;5.90;99.90
48454;DHT22;34261;55.678;12.464;2024-03-06T07:20:23;5.90;99.90
48454;DHT22;34261;55.678;12.464;2024-03-06T07:23:01;6.00;99.90
48454;DHT22;34261;55.678;12.464;2024-03-06T07:25:57;5.90;99.90
48454;DHT22;34261;55.678;12.464;2024-03-06T07:28:51;6.00;99.90
48454;DHT22;34261;55.678;12.464;2024-03-06T07:31:18;6.10;99.90
48454;DHT22;34261;55.678;12.464;2024-03-06T07:33:45;6.10;99.90
48454;DHT22;34261;55.678;12.464;2024-03-06T07:36:12;6.10;99.90
48454;DHT22;34261;55.678;12.464;2024-03-06T07:38:38;6.00;99.90
48454;DHT22;34261;55.678;12.464;2024-03-06T07:41:05;6.10;99.90
48454;DHT22;34261;55.678;12.464;2024-03-06T07:43:33;6.00;99.90
48454;DHT22;34261;55.678;12.464;2024-03-06T07:45:59;6.00;99.90
48454;DHT22;34261;55.678;12.464;2024-03-06T07:48:25;6.00;99.90
48454;DHT22;34261;55.678;12.464;2024-03-06T07:50:57;6.10;99.90
48454;DHT22;34261;55.678;12.464;2024-03-06T07:53:24;6.10;99.90
48454;DHT22;34261;55.678;12.464;2024-03-06T07:55:50;6.00;99.90
48454;DHT22;34261;55.678;12.464;2024-03-06T07:58:19;6.00;99.90
48454;DHT22;34261;55.678;12.464;2024-03-06T08:00:49;5.90;99.90
48454;DHT22;34261;55.678;12.464;2024-03-06T08:03:15;5.90;99.90
48454;DHT22;34261;55.678;12.464;2024-03-06T08:05:41;5.90;99.90
48454;DHT22;34261;55.678;12.464;2024-03-06T08:08:12;5.90;99.90
48454;DHT22;34261;55.678;12.464;2024-03-06T08:10:43;5.90;99.90
48454;DHT22;34261;55.678;12.464;2024-03-06T08:13:13;5.90;99.90
48454;DHT22;34261;55.678;12.464;2024-03-06T08:15:39;5.90;99.90
48454;DHT22;34261;55.678;12.464;2024-03-06T08:18:06;6.00;99.90
48454;DHT22;34261;55.678;12.464;2024-03-06T08:20:39;6.00;99.90
48454;DHT22;34261;55.678;12.464;2024-03-06T08:23:15;6.00;99.90
48454;DHT22;34261;55.678;12.464;2024-03-06T08:25:41;6.10;99.90
48454;DHT22;34261;55.678;12.464;2024-03-06T08:28:06;6.10;99.90
48454;DHT22;34261;55.678;12.464;2024-03-06T08:30:50;6.00;99.90
48454;DHT22;34261;55.678;12.464;2024-03-06T08:33:18;6.00;99.90
48454;DHT22;34261;55.678;12.464;2024-03-06T08:35:44;5.90;99.90
48454;DHT22;34261;55.678;12.464;2024-03-06T08:38:09;6.00;99.90
48454;DHT22;34261;55.678;12.464;2024-03-06T08:40:36;6.00;99.90
48454;DHT22;34261;55.678;12.464;2024-03-06T08:43:03;6.00;99.90
48454;DHT22;34261;55.678;12.464;2024-03-06T08:45:29;6.10;99.90
48454;DHT22;34261;55.678;12.464;2024-03-06T08:47:55;6.10;99.90
48454;DHT22;34261;55.678;12.464;2024-03-06T08:50:21;6.10;99.90
48454;DHT22;34261;55.678;12.464;2024-03-06T08:52:47;6.10;99.90
48454;DHT22;34261;55.678;12.464;2024-03-06T08:55:13;6.10;99.90
48454;DHT22;34261;55.678;12.464;2024-03-06T08:57:39;6.10;99.90
48454;DHT22;34261;55.678;12.464;2024-03-06T09:00:07;6.10;99.90
48454;DHT22;34261;55.678;12.464;2024-03-06T09:02:37;6.20;99.90
48454;DHT22;34261;55.678;12.464;2024-03-06T09:05:07;6.20;99.90
48454;DHT22;34261;55.678;12.464;2024-03-06T09:07:36;6.20;99.90
48454;DHT22;34261;55.678;12.464;2024-03-06T09:10:07;6.20;99.90
48454;DHT22;34261;55.678;12.464;2024-03-06T09:12:33;6.20;99.90
48454;DHT22;34261;55.678;12.464;2024-03-06T09:14:59;6.20;99.90
48454;DHT22;34261;55.678;12.464;2024-03-06T09:17:26;6.20;99.90
48454;DHT22;34261;55.678;12.464;2024-03-06T09:19:52;6.20;99.90
48454;DHT22;34261;55.678;12.464;2024-03-06T09:22:19;6.20;99.90
48454;DHT22;34261;55.678;12.464;2024-03-06T09:24:44;6.10;99.90
48454;DHT22;34261;55.678;12.464;2024-03-06T09:27:10;6.10;99.90
48454;DHT22;34261;55.678;12.464;2024-03-06T09:29:36;6.10;99.90
48454;DHT22;34261;55.678;12.464;2024-03-06T09:32:02;6.20;99.90
48454;DHT22;34261;55.678;12.464;2024-03-06T09:34:27;6.10;99.90
48454;DHT22;34261;55.678;12.464;2024-03-06T09:36:53;6.10;99.90
48454;DHT22;34261;55.678;12.464;2024-03-06T09:39:19;6.20;99.90
48454;DHT22;34261;55.678;12.464;2024-03-06T09:41:57;6.20;99.90
48454;DHT22;34261;55.678;12.464;2024-03-06T09:45:29;6.20;99.90
48454;DHT22;34261;55.678;12.464;2024-03-06T11:54:02;6.40;99.90
48454;DHT22;34261;55.678;12.464;2024-03-06T11:56:31;6.50;99.90
48454;DHT22;34261;55.678;12.464;2024-03-06T11:58:59;6.50;99.90
48454;DHT22;34261;55.678;12.464;2024-03-06T12:01:25;6.50;99.90
48454;DHT22;34261;55.678;12.464;2024-03-06T12:03:52;6.60;99.90
48454;DHT22;34261;55.678;12.464;2024-03-06T12:06:26;6.50;99.90
48454;DHT22;34261;55.678;12.464;2024-03-06T12:08:58;6.50;99.90
48454;DHT22;34261;55.678;12.464;2024-03-06T12:11:25;6.60;99.90
48454;DHT22;34261;55.678;12.464;2024-03-06T12:13:52;6.70;99.90
48454;DHT22;34261;55.678;12.464;2024-03-06T12:16:19;6.70;99.90
48454;DHT22;34261;55.678;12.464;2024-03-06T12:18:58;6.70;99.90
48454;DHT22;34261;55.678;12.464;2024-03-06T12:21:31;6.70;99.90
48454;DHT22;34261;55.678;12.464;2024-03-06T12:24:10;6.70;99.90
48454;DHT22;34261;55.678;12.464;2024-03-06T12:26:42;6.70;99.90
48454;DHT22;34261;55.678;12.464;2024-03-06T12:29:16;6.70;99.90
48454;DHT22;34261;55.678;12.464;2024-03-06T12:31:47;6.70;99.90
48454;DHT22;34261;55.678;12.464;2024-03-06T12:34:28;6.70;99.90
48454;DHT22;34261;55.678;12.464;2024-03-06T12:37:15;6.90;99.90
48454;DHT22;34261;55.678;12.464;2024-03-06T12:39:44;7.00;99.90
48454;DHT22;34261;55.678;12.464;2024-03-06T12:42:10;7.00;99.90
48454;DHT22;34261;55.678;12.464;2024-03-06T12:44:37;6.90;99.90
48454;DHT22;34261;55.678;12.464;2024-03-06T12:47:03;7.00;99.90
48454;DHT22;34261;55.678;12.464;2024-03-06T12:49:29;7.00;99.90
48454;DHT22;34261;55.678;12.464;2024-03-06T12:52:00;7.00;99.90
48454;DHT22;34261;55.678;12.464;2024-03-06T12:54:26;7.00;99.90
48454;DHT22;34261;55.678;12.464;2024-03-06T12:56:52;6.90;99.90
48454;DHT22;34261;55.678;12.464;2024-03-06T12:59:19;6.90;99.90
48454;DHT22;34261;55.678;12.464;2024-03-06T13:01:45;6.90;99.90
48454;DHT22;34261;55.678;12.464;2024-03-06T13:04:12;6.90;99.90
48454;DHT22;34261;55.678;12.464;2024-03-06T13:06:39;6.90;99.90
48454;DHT22;34261;55.678;12.464;2024-03-06T13:09:08;6.90;99.90
48454;DHT22;34261;55.678;12.464;2024-03-06T13:11:41;6.90;99.90
48454;DHT22;34261;55.678;12.464;2024-03-06T13:14:10;6.90;99.90
48454;DHT22;34261;55.678;12.464;2024-03-06T13:16:37;6.80;99.90
48454;DHT22;34261;55.678;12.464;2024-03-06T13:19:06;6.80;99.90
48454;DHT22;34261;55.678;12.464;2024-03-06T13:21:33;6.80;99.90
48454;DHT22;34261;55.678;12.464;2024-03-06T13:23:59;6.80;99.90
48454;DHT22;34261;55.678;12.464;2024-03-06T13:26:26;6.80;99.90
48454;DHT22;34261;55.678;12.464;2024-03-06T13:28:51;6.90;99.90
48454;DHT22;34261;55.678;12.464;2024-03-06T13:31:17;6.90;99.90
48454;DHT22;34261;55.678;12.464;2024-03-06T13:33:43;6.90;99.90
48454;DHT22;34261;55.678;12.464;2024-03-06T13:36:09;6.90;99.90
48454;DHT22;34261;55.678;12.464;2024-03-06T13:38:36;6.90;99.90
48454;DHT22;34261;55.678;12.464;2024-03-06T13:41:05;6.80;99.90
48454;DHT22;34261;55.678;12.464;2024-03-06T13:43:33;6.80;99.90
48454;DHT22;34261;55.678;12.464;2024-03-06T13:46:02;6.80;99.90
48454;DHT22;34261;55.678;12.464;2024-03-06T13:48:28;6.80;99.90
48454;DHT22;34261;55.678;12.464;2024-03-06T13:50:54;6.90;99.90
48454;DHT22;34261;55.678;12.464;2024-03-06T13:53:20;6.90;99.90
48454;DHT22;34261;55.678;12.464;2024-03-06T13:55:46;7.00;99.90
48454;DHT22;34261;55.678;12.464;2024-03-06T13:58:11;7.00;99.90
48454;DHT22;34261;55.678;12.464;2024-03-06T14:00:38;7.00;99.90
48454;DHT22;34261;55.678;12.464;2024-03-06T14:03:04;7.00;99.90
48454;DHT22;34261;55.678;12.464;2024-03-06T14:05:30;7.00;99.90
48454;DHT22;34261;55.678;12.464;2024-03-06T14:07:56;7.00;99.90
48454;DHT22;34261;55.678;12.464;2024-03-06T14:10:22;7.00;99.90
48454;DHT22;34261;55.678;12.464;2024-03-06T14:12:49;7.00;99.90
48454;DHT22;34261;55.678;12.464;2024-03-06T14:15:35;7.00;99.90
48454;DHT22;34261;55.678;12.464;2024-03-06T14:18:01;7.10;99.90
48454;DHT22;34261;55.678;12.464;2024-03-06T14:20:28;7.20;99.90
48454;DHT22;34261;55.678;12.464;2024-03-06T14:22:54;7.30;99.90
48454;DHT22;34261;55.678;12.464;2024-03-06T14:25:19;7.30;99.90
48454;DHT22;34261;55.678;12.464;2024-03-06T14:27:46;7.40;99.90
48454;DHT22;34261;55.678;12.464;2024-03-06T14:30:12;7.40;99.90
48454;DHT22;34261;55.678;12.464;2024-03-06T14:32:40;7.40;99.90
48454;DHT22;34261;55.678;12.464;2024-03-06T14:35:06;7.40;99.90
48454;DHT22;34261;55.678;12.464;2024-03-06T14:37:32;7.40;99.90
48454;DHT22;34261;55.678;12.464;2024-03-06T14:40:30;7.50;99.90
48454;DHT22;34261;55.678;12.464;2024-03-06T14:42:58;7.50;99.90
48454;DHT22;34261;55.678;12.464;2024-03-06T14:45:24;7.50;99.90
48454;DHT22;34261;55.678;12.464;2024-03-06T14:47:49;7.50;99.90
48454;DHT22;34261;55.678;12.464;2024-03-06T14:50:15;7.50;99.90
48454;DHT22;34261;55.678;12.464;2024-03-06T14:52:42;7.50;99.90
48454;DHT22;34261;55.678;12.464;2024-03-06T14:55:08;7.50;99.90
48454;DHT22;34261;55.678;12.464;2024-03-06T14:57:34;7.50;99.90
48454;DHT22;34261;55.678;12.464;2024-03-06T15:00:00;7.50;99.90
48454;DHT22;34261;55.678;12.464;2024-03-06T15:02:25;7.50;99.90
48454;DHT22;34261;55.678;12.464;2024-03-06T15:04:51;7.50;99.90
48454;DHT22;34261;55.678;12.464;2024-03-06T15:07:17;7.50;99.90
48454;DHT22;34261;55.678;12.464;2024-03-06T15:09:44;7.50;99.90
48454;DHT22;34261;55.678;12.464;2024-03-06T15:12:10;7.60;99.90
48454;DHT22;34261;55.678;12.464;2024-03-06T15:14:36;7.60;99.90
48454;DHT22;34261;55.678;12.464;2024-03-06T15:17:01;7.70;99.90
48454;DHT22;34261;55.678;12.464;2024-03-06T15:19:27;7.60;99.90
48454;DHT22;34261;55.678;12.464;2024-03-06T15:21:53;7.60;99.90
48454;DHT22;34261;55.678;12.464;2024-03-06T15:24:19;7.60;99.90
48454;DHT22;34261;55.678;12.464;2024-03-06T15:26:45;7.60;99.90
48454;DHT22;34261;55.678;12.464;2024-03-06T15:29:11;7.60;99.90
48454;DHT22;34261;55.678;12.464;2024-03-06T15:31:37;7.60;99.90
48454;DHT22;34261;55.678;12.464;2024-03-06T15:34:04;7.50;99.90
48454;DHT22;34261;55.678;12.464;2024-03-06T15:36:41;7.50;99.90
48454;DHT22;34261;55.678;12.464;2024-03-06T15:39:11;7.60;99.90
48454;DHT22;34261;55.678;12.464;2024-03-06T15:41:37;7.50;99.90
48454;DHT22;34261;55.678;12.464;2024-03-06T15:44:02;7.50;99.90
48454;DHT22;34261;55.678;12.464;2024-03-06T15:46:30;7.50;99.90
48454;DHT22;34261;55.678;12.464;2024-03-06T15:49:29;7.50;99.90
48454;DHT22;34261;55.678;12.464;2024-03-06T15:51:56;7.50;99.90
48454;DHT22;34261;55.678;12.464;2024-03-06T15:54:23;7.40;99.90
48454;DHT22;34261;55.678;12.464;2024-03-06T15:56:48;7.40;99.90
48454;DHT22;34261;55.678;12.464;2024-03-06T15:59:14;7.40;99.90
48454;DHT22;34261;55.678;12.464;2024-03-06T16:01:46;7.40;99.90
48454;DHT22;34261;55.678;12.464;2024-03-06T16:04:12;7.40;99.90
48454;DHT22;34261;55.678;12.464;2024-03-06T16:06:38;7.50;99.90
48454;DHT22;34261;55.678;12.464;2024-03-06T16:09:05;7.50;99.90
48454;DHT22;34261;55.678;12.464;2024-03-06T16:11:31;7.50;99.90
48454;DHT22;34261;55.678;12.464;2024-03-06T16:13:57;7.50;99.90
48454;DHT22;34261;55.678;12.464;2024-03-06T16:16:27;7.50;99.90
48454;DHT22;34261;55.678;12.464;2024-03-06T16:18:56;7.50;99.90
48454;DHT22;34261;55.678;12.464;2024-03-06T16:21:22;7.50;99.90
48454;DHT22;34261;55.678;12.464;2024-03-06T16:23:48;7.50;99.90
48454;DHT22;34261;55.678;12.464;2024-03-06T16:26:14;7.40;99.90
48454;DHT22;34261;55.678;12.464;2024-03-06T16:28:41;7.40;99.90
48454;DHT22;34261;55.678;12.464;2024-03-06T16:31:06;7.40;99.90
48454;DHT22;34261;55.678;12.464;2024-03-06T16:33:32;7.50;99.90
48454;DHT22;34261;55.678;12.464;2024-03-06T16:36:01;7.40;99.90
48454;DHT22;34261;55.678;12.464;2024-03-06T16:38:29;7.40;99.90
48454;DHT22;34261;55.678;12.464;2024-03-06T16:40:57;7.40;99.90
48454;DHT22;34261;55.678;12.464;2024-03-06T16:43:50;7.30;99.90
48454;DHT22;34261;55.678;12.464;2024-03-06T17:13:19;6.90;99.90
48454;DHT22;34261;55.678;12.464;2024-03-06T17:15:44;6.90;99.90
48454;DHT22;34261;55.678;12.464;2024-03-06T17:18:11;6.80;99.90
48454;DHT22;34261;55.678;12.464;2024-03-06T17:20:37;6.80;99.90
48454;DHT22;34261;55.678;12.464;2024-03-06T17:23:04;6.70;99.90
48454;DHT22;34261;55.678;12.464;2024-03-06T17:25:30;6.70;99.90
48454;DHT22;34261;55.678;12.464;2024-03-06T17:27:57;6.60;99.90
48454;DHT22;34261;55.678;12.464;2024-03-06T17:30:23;6.60;99.90
48454;DHT22;34261;55.678;12.464;2024-03-06T17:32:49;6.50;99.90
48454;DHT22;34261;55.678;12.464;2024-03-06T17:35:18;6.50;99.90
48454;DHT22;34261;55.678;12.464;2024-03-06T17:37:47;6.50;99.90
48454;DHT22;34261;55.678;12.464;2024-03-06T17:40:14;6.50;99.90
48454;DHT22;34261;55.678;12.464;2024-03-06T17:42:39;6.50;99.90
48454;DHT22;34261;55.678;12.464;2024-03-06T17:45:07;6.40;99.90
48454;DHT22;34261;55.678;12.464;2024-03-06T17:47:33;6.40;99.90
48454;DHT22;34261;55.678;12.464;2024-03-06T17:50:00;6.40;99.90
48454;DHT22;34261;55.678;12.464;2024-03-06T17:52:26;6.40;99.90
48454;DHT22;34261;55.678;12.464;2024-03-06T17:54:52;6.40;99.90
48454;DHT22;34261;55.678;12.464;2024-03-06T17:57:17;6.40;99.90
48454;DHT22;34261;55.678;12.464;2024-03-06T17:59:43;6.40;99.90
48454;DHT22;34261;55.678;12.464;2024-03-06T18:02:10;6.40;99.90
48454;DHT22;34261;55.678;12.464;2024-03-06T18:04:37;6.40;99.90
48454;DHT22;34261;55.678;12.464;2024-03-06T18:07:03;6.40;99.90
48454;DHT22;34261;55.678;12.464;2024-03-06T18:09:38;6.40;99.90
48454;DHT22;34261;55.678;12.464;2024-03-06T18:12:05;6.40;99.90
48454;DHT22;34261;55.678;12.464;2024-03-06T18:14:31;6.40;99.90